sensor_id;sensor_type;location;lat;lon;timestamp;P1;durP1;ratioP1;P2;durP2;ratioP2
18445;SDS011;9352;50.888;4.466;2023-06-14T00:00:06;7.50;;;5.65;;
18445;SDS011;9352;50.888;4.466;2023-06-14T00:02:34;9.15;;;5.85;;
18445;SDS011;9352;50.888;4.466;2023-06-14T00:05:01;6.95;;;5.28;;
18445;SDS011;9352;50.888;4.466;2023-06-14T00:07:35;8.57;;;5.30;;
18445;SDS011;9352;50.888;4.466;2023-06-14T00:10:07;15.02;;;6.13;;
18445;SDS011;9352;50.888;4.466;2023-06-14T00:12:35;9.82;;;5.43;;
18445;SDS011;9352;50.888;4.466;2023-06-14T00:15:03;14.80;;;5.97;;
18445;SDS011;9352;50.888;4.466;2023-06-14T00:17:31;12.15;;;5.50;;
18445;SDS011;9352;50.888;4.466;2023-06-14T00:19:59;8.70;;;5.55;;
18445;SDS011;9352;50.888;4.466;2023-06-14T00:22:30;8.63;;;5.63;;
18445;SDS011;9352;50.888;4.466;2023-06-14T00:24:59;10.13;;;5.43;;
18445;SDS011;9352;50.888;4.466;2023-06-14T00:27:26;13.95;;;5.82;;
18445;SDS011;9352;50.888;4.466;2023-06-14T00:29:53;12.90;;;5.75;;
18445;SDS011;9352;50.888;4.466;2023-06-14T00:32:19;9.57;;;5.38;;
18445;SDS011;9352;50.888;4.466;2023-06-14T00:34:50;8.75;;;5.20;;
18445;SDS011;9352;50.888;4.466;2023-06-14T00:37:17;8.07;;;5.63;;
18445;SDS011;9352;50.888;4.466;2023-06-14T00:39:44;10.98;;;5.93;;
18445;SDS011;9352;50.888;4.466;2023-06-14T00:42:12;7.88;;;5.28;;
18445;SDS011;9352;50.888;4.466;2023-06-14T00:44:49;7.47;;;5.70;;
18445;SDS011;9352;50.888;4.466;2023-06-14T00:47:16;11.60;;;5.70;;
18445;SDS011;9352;50.888;4.466;2023-06-14T00:49:44;9.40;;;5.78;;
18445;SDS011;9352;50.888;4.466;2023-06-14T00:52:12;8.77;;;5.70;;
18445;SDS011;9352;50.888;4.466;2023-06-14T00:54:40;9.30;;;5.55;;
18445;SDS011;9352;50.888;4.466;2023-06-14T00:57:07;14.25;;;5.35;;
18445;SDS011;9352;50.888;4.466;2023-06-14T00:59:35;10.18;;;5.80;;
18445;SDS011;9352;50.888;4.466;2023-06-14T01:02:07;7.70;;;5.68;;
18445;SDS011;9352;50.888;4.466;2023-06-14T01:04:35;13.38;;;5.88;;
18445;SDS011;9352;50.888;4.466;2023-06-14T01:07:04;8.68;;;5.47;;
18445;SDS011;9352;50.888;4.466;2023-06-14T01:09:41;7.13;;;5.90;;
18445;SDS011;9352;50.888;4.466;2023-06-14T01:12:17;13.68;;;5.70;;
18445;SDS011;9352;50.888;4.466;2023-06-14T01:14:51;11.07;;;6.13;;
18445;SDS011;9352;50.888;4.466;2023-06-14T01:17:20;7.55;;;5.45;;
18445;SDS011;9352;50.888;4.466;2023-06-14T01:19:48;12.65;;;5.72;;
18445;SDS011;9352;50.888;4.466;2023-06-14T01:22:23;9.40;;;5.60;;
18445;SDS011;9352;50.888;4.466;2023-06-14T01:24:52;13.43;;;5.70;;
18445;SDS011;9352;50.888;4.466;2023-06-14T01:27:20;13.57;;;5.75;;
18445;SDS011;9352;50.888;4.466;2023-06-14T01:29:49;10.40;;;5.80;;
18445;SDS011;9352;50.888;4.466;2023-06-14T01:32:21;13.20;;;5.43;;
18445;SDS011;9352;50.888;4.466;2023-06-14T01:34:49;8.82;;;5.88;;
18445;SDS011;9352;50.888;4.466;2023-06-14T01:37:16;6.05;;;5.45;;
18445;SDS011;9352;50.888;4.466;2023-06-14T01:39:45;11.05;;;6.07;;
18445;SDS011;9352;50.888;4.466;2023-06-14T01:42:16;9.55;;;5.93;;
18445;SDS011;9352;50.888;4.466;2023-06-14T01:44:44;9.07;;;6.40;;
18445;SDS011;9352;50.888;4.466;2023-06-14T01:47:12;11.95;;;5.95;;
18445;SDS011;9352;50.888;4.466;2023-06-14T01:49:40;11.40;;;5.90;;
18445;SDS011;9352;50.888;4.466;2023-06-14T01:52:07;12.32;;;5.82;;
18445;SDS011;9352;50.888;4.466;2023-06-14T01:54:35;12.63;;;6.15;;
18445;SDS011;9352;50.888;4.466;2023-06-14T01:57:07;9.13;;;6.47;;
18445;SDS011;9352;50.888;4.466;2023-06-14T01:59:36;10.68;;;6.72;;
18445;SDS011;9352;50.888;4.466;2023-06-14T02:02:03;11.20;;;6.65;;
18445;SDS011;9352;50.888;4.466;2023-06-14T02:04:31;16.08;;;6.20;;
18445;SDS011;9352;50.888;4.466;2023-06-14T02:06:57;10.95;;;6.70;;
18445;SDS011;9352;50.888;4.466;2023-06-14T02:09:24;12.60;;;5.90;;
18445;SDS011;9352;50.888;4.466;2023-06-14T02:11:51;12.05;;;6.80;;
18445;SDS011;9352;50.888;4.466;2023-06-14T02:14:18;14.32;;;6.43;;
18445;SDS011;9352;50.888;4.466;2023-06-14T02:16:46;10.82;;;6.75;;
18445;SDS011;9352;50.888;4.466;2023-06-14T02:19:15;7.03;;;6.30;;
18445;SDS011;9352;50.888;4.466;2023-06-14T02:21:42;14.77;;;6.70;;
18445;SDS011;9352;50.888;4.466;2023-06-14T02:24:09;7.10;;;6.30;;
18445;SDS011;9352;50.888;4.466;2023-06-14T02:26:36;14.93;;;6.50;;
18445;SDS011;9352;50.888;4.466;2023-06-14T02:29:03;12.38;;;6.80;;
18445;SDS011;9352;50.888;4.466;2023-06-14T02:31:30;8.60;;;6.60;;
18445;SDS011;9352;50.888;4.466;2023-06-14T02:33:59;17.45;;;6.70;;
18445;SDS011;9352;50.888;4.466;2023-06-14T02:36:26;9.57;;;6.65;;
18445;SDS011;9352;50.888;4.466;2023-06-14T02:38:54;15.23;;;6.78;;
18445;SDS011;9352;50.888;4.466;2023-06-14T02:41:22;15.00;;;6.80;;
18445;SDS011;9352;50.888;4.466;2023-06-14T02:43:49;10.57;;;6.15;;
18445;SDS011;9352;50.888;4.466;2023-06-14T02:46:16;14.95;;;6.82;;
18445;SDS011;9352;50.888;4.466;2023-06-14T02:48:43;10.68;;;6.80;;
18445;SDS011;9352;50.888;4.466;2023-06-14T02:51:11;10.95;;;6.55;;
18445;SDS011;9352;50.888;4.466;2023-06-14T02:53:38;13.40;;;6.70;;
18445;SDS011;9352;50.888;4.466;2023-06-14T02:56:05;13.18;;;7.20;;
18445;SDS011;9352;50.888;4.466;2023-06-14T02:58:32;12.15;;;7.38;;
18445;SDS011;9352;50.888;4.466;2023-06-14T03:00:59;11.35;;;7.10;;
18445;SDS011;9352;50.888;4.466;2023-06-14T03:03:28;7.65;;;6.78;;
18445;SDS011;9352;50.888;4.466;2023-06-14T03:05:55;16.25;;;6.63;;
18445;SDS011;9352;50.888;4.466;2023-06-14T03:08:23;9.95;;;7.43;;
18445;SDS011;9352;50.888;4.466;2023-06-14T03:10:52;9.90;;;7.47;;
18445;SDS011;9352;50.888;4.466;2023-06-14T03:13:21;13.80;;;6.70;;
18445;SDS011;9352;50.888;4.466;2023-06-14T03:15:48;18.80;;;7.50;;
18445;SDS011;9352;50.888;4.466;2023-06-14T03:18:17;14.93;;;7.95;;
18445;SDS011;9352;50.888;4.466;2023-06-14T03:20:44;8.50;;;7.28;;
18445;SDS011;9352;50.888;4.466;2023-06-14T03:23:11;24.02;;;7.95;;
18445;SDS011;9352;50.888;4.466;2023-06-14T03:25:40;9.77;;;7.68;;
18445;SDS011;9352;50.888;4.466;2023-06-14T03:28:07;15.07;;;7.90;;
18445;SDS011;9352;50.888;4.466;2023-06-14T03:30:34;12.50;;;7.43;;
18445;SDS011;9352;50.888;4.466;2023-06-14T03:33:01;15.27;;;8.07;;
18445;SDS011;9352;50.888;4.466;2023-06-14T03:35:28;12.73;;;7.80;;
18445;SDS011;9352;50.888;4.466;2023-06-14T03:37:55;15.30;;;7.65;;
18445;SDS011;9352;50.888;4.466;2023-06-14T03:40:22;26.23;;;8.43;;
18445;SDS011;9352;50.888;4.466;2023-06-14T03:42:53;11.10;;;7.68;;
18445;SDS011;9352;50.888;4.466;2023-06-14T03:45:20;12.98;;;7.70;;
18445;SDS011;9352;50.888;4.466;2023-06-14T03:47:47;12.27;;;7.70;;
18445;SDS011;9352;50.888;4.466;2023-06-14T03:50:15;12.18;;;8.48;;
18445;SDS011;9352;50.888;4.466;2023-06-14T03:52:43;10.32;;;7.82;;
18445;SDS011;9352;50.888;4.466;2023-06-14T03:55:10;11.20;;;7.25;;
18445;SDS011;9352;50.888;4.466;2023-06-14T03:57:38;10.90;;;7.20;;
18445;SDS011;9352;50.888;4.466;2023-06-14T04:00:07;16.38;;;7.53;;
18445;SDS011;9352;50.888;4.466;2023-06-14T04:02:36;10.70;;;7.38;;
18445;SDS011;9352;50.888;4.466;2023-06-14T04:05:03;12.23;;;7.30;;
18445;SDS011;9352;50.888;4.466;2023-06-14T04:07:33;15.30;;;7.40;;
18445;SDS011;9352;50.888;4.466;2023-06-14T04:10:05;10.18;;;6.63;;
18445;SDS011;9352;50.888;4.466;2023-06-14T04:12:33;14.55;;;7.55;;
18445;SDS011;9352;50.888;4.466;2023-06-14T04:15:00;17.20;;;7.78;;
18445;SDS011;9352;50.888;4.466;2023-06-14T04:17:29;12.80;;;7.72;;
18445;SDS011;9352;50.888;4.466;2023-06-14T04:19:57;22.80;;;7.82;;
18445;SDS011;9352;50.888;4.466;2023-06-14T04:22:24;16.83;;;7.65;;
18445;SDS011;9352;50.888;4.466;2023-06-14T04:24:53;14.02;;;8.30;;
18445;SDS011;9352;50.888;4.466;2023-06-14T04:27:20;12.73;;;7.72;;
18445;SDS011;9352;50.888;4.466;2023-06-14T04:29:50;12.60;;;8.18;;
18445;SDS011;9352;50.888;4.466;2023-06-14T04:32:22;12.95;;;8.55;;
18445;SDS011;9352;50.888;4.466;2023-06-14T04:34:52;12.85;;;7.80;;
18445;SDS011;9352;50.888;4.466;2023-06-14T04:37:19;15.60;;;8.38;;
18445;SDS011;9352;50.888;4.466;2023-06-14T04:39:47;12.45;;;8.00;;
18445;SDS011;9352;50.888;4.466;2023-06-14T04:42:14;18.88;;;8.32;;
18445;SDS011;9352;50.888;4.466;2023-06-14T04:44:41;15.25;;;8.45;;
18445;SDS011;9352;50.888;4.466;2023-06-14T04:47:08;18.80;;;7.55;;
18445;SDS011;9352;50.888;4.466;2023-06-14T04:49:36;12.75;;;8.30;;
18445;SDS011;9352;50.888;4.466;2023-06-14T04:52:05;20.27;;;9.68;;
18445;SDS011;9352;50.888;4.466;2023-06-14T04:54:35;9.90;;;7.85;;
18445;SDS011;9352;50.888;4.466;2023-06-14T04:57:03;13.00;;;7.85;;
18445;SDS011;9352;50.888;4.466;2023-06-14T04:59:30;14.32;;;8.45;;
18445;SDS011;9352;50.888;4.466;2023-06-14T05:01:58;16.45;;;7.95;;
18445;SDS011;9352;50.888;4.466;2023-06-14T05:04:25;18.50;;;8.15;;
18445;SDS011;9352;50.888;4.466;2023-06-14T05:06:53;12.80;;;8.32;;
18445;SDS011;9352;50.888;4.466;2023-06-14T05:09:21;16.98;;;8.20;;
18445;SDS011;9352;50.888;4.466;2023-06-14T05:11:48;12.85;;;7.53;;
18445;SDS011;9352;50.888;4.466;2023-06-14T05:14:16;11.20;;;7.43;;
18445;SDS011;9352;50.888;4.466;2023-06-14T05:16:43;13.63;;;8.02;;
18445;SDS011;9352;50.888;4.466;2023-06-14T05:19:10;12.70;;;7.90;;
18445;SDS011;9352;50.888;4.466;2023-06-14T05:21:37;14.18;;;8.30;;
18445;SDS011;9352;50.888;4.466;2023-06-14T05:24:04;10.60;;;8.20;;
18445;SDS011;9352;50.888;4.466;2023-06-14T05:26:33;11.45;;;8.10;;
18445;SDS011;9352;50.888;4.466;2023-06-14T05:29:00;15.32;;;8.23;;
18445;SDS011;9352;50.888;4.466;2023-06-14T05:31:27;23.73;;;9.15;;
18445;SDS011;9352;50.888;4.466;2023-06-14T05:33:55;12.70;;;8.05;;
18445;SDS011;9352;50.888;4.466;2023-06-14T05:36:22;14.77;;;8.25;;
18445;SDS011;9352;50.888;4.466;2023-06-14T05:38:49;11.02;;;8.35;;
18445;SDS011;9352;50.888;4.466;2023-06-14T05:41:22;15.23;;;8.35;;
18445;SDS011;9352;50.888;4.466;2023-06-14T05:43:51;15.60;;;8.48;;
18445;SDS011;9352;50.888;4.466;2023-06-14T05:46:18;14.15;;;8.50;;
18445;SDS011;9352;50.888;4.466;2023-06-14T05:48:47;19.52;;;7.40;;
18445;SDS011;9352;50.888;4.466;2023-06-14T05:51:14;12.68;;;8.35;;
18445;SDS011;9352;50.888;4.466;2023-06-14T05:53:44;16.02;;;8.63;;
18445;SDS011;9352;50.888;4.466;2023-06-14T05:56:11;13.95;;;8.75;;
18445;SDS011;9352;50.888;4.466;2023-06-14T05:58:38;16.40;;;8.43;;
18445;SDS011;9352;50.888;4.466;2023-06-14T06:01:06;20.35;;;8.55;;
18445;SDS011;9352;50.888;4.466;2023-06-14T06:03:33;17.35;;;7.82;;
18445;SDS011;9352;50.888;4.466;2023-06-14T06:06:00;19.73;;;8.77;;
18445;SDS011;9352;50.888;4.466;2023-06-14T06:08:28;18.67;;;8.10;;
18445;SDS011;9352;50.888;4.466;2023-06-14T06:10:54;18.55;;;8.43;;
18445;SDS011;9352;50.888;4.466;2023-06-14T06:13:21;15.65;;;8.65;;
18445;SDS011;9352;50.888;4.466;2023-06-14T06:15:48;19.10;;;8.00;;
18445;SDS011;9352;50.888;4.466;2023-06-14T06:18:17;16.15;;;8.68;;
18445;SDS011;9352;50.888;4.466;2023-06-14T06:20:44;18.95;;;8.07;;
18445;SDS011;9352;50.888;4.466;2023-06-14T06:23:12;21.70;;;8.45;;
18445;SDS011;9352;50.888;4.466;2023-06-14T06:25:39;11.60;;;8.70;;
18445;SDS011;9352;50.888;4.466;2023-06-14T06:28:06;13.77;;;8.35;;
18445;SDS011;9352;50.888;4.466;2023-06-14T06:30:33;12.35;;;8.38;;
18445;SDS011;9352;50.888;4.466;2023-06-14T06:33:01;10.93;;;8.60;;
18445;SDS011;9352;50.888;4.466;2023-06-14T06:35:29;14.43;;;8.30;;
18445;SDS011;9352;50.888;4.466;2023-06-14T06:37:58;12.32;;;8.48;;
18445;SDS011;9352;50.888;4.466;2023-06-14T06:40:25;18.95;;;9.68;;
18445;SDS011;9352;50.888;4.466;2023-06-14T06:42:52;14.43;;;8.35;;
18445;SDS011;9352;50.888;4.466;2023-06-14T06:45:19;20.50;;;9.07;;
18445;SDS011;9352;50.888;4.466;2023-06-14T06:47:48;10.73;;;7.22;;
18445;SDS011;9352;50.888;4.466;2023-06-14T06:50:15;14.45;;;7.63;;
18445;SDS011;9352;50.888;4.466;2023-06-14T06:52:43;14.00;;;8.50;;
18445;SDS011;9352;50.888;4.466;2023-06-14T06:55:11;15.50;;;8.52;;
18445;SDS011;9352;50.888;4.466;2023-06-14T06:57:38;15.27;;;8.25;;
18445;SDS011;9352;50.888;4.466;2023-06-14T07:00:05;15.00;;;7.80;;
18445;SDS011;9352;50.888;4.466;2023-06-14T07:02:34;11.27;;;7.78;;
18445;SDS011;9352;50.888;4.466;2023-06-14T07:05:01;13.45;;;7.75;;
18445;SDS011;9352;50.888;4.466;2023-06-14T07:07:29;8.35;;;6.65;;
18445;SDS011;9352;50.888;4.466;2023-06-14T07:09:57;13.60;;;8.35;;
18445;SDS011;9352;50.888;4.466;2023-06-14T07:12:25;14.52;;;7.93;;
18445;SDS011;9352;50.888;4.466;2023-06-14T07:14:52;11.38;;;7.40;;
18445;SDS011;9352;50.888;4.466;2023-06-14T07:17:19;13.10;;;7.85;;
18445;SDS011;9352;50.888;4.466;2023-06-14T07:19:45;12.48;;;7.90;;
18445;SDS011;9352;50.888;4.466;2023-06-14T07:22:12;10.43;;;7.50;;
18445;SDS011;9352;50.888;4.466;2023-06-14T07:24:39;9.57;;;7.30;;
18445;SDS011;9352;50.888;4.466;2023-06-14T07:27:08;15.82;;;7.57;;
18445;SDS011;9352;50.888;4.466;2023-06-14T07:29:35;13.57;;;7.47;;
18445;SDS011;9352;50.888;4.466;2023-06-14T07:32:03;11.30;;;7.20;;
18445;SDS011;9352;50.888;4.466;2023-06-14T07:34:30;12.07;;;7.15;;
18445;SDS011;9352;50.888;4.466;2023-06-14T07:36:57;9.48;;;7.43;;
18445;SDS011;9352;50.888;4.466;2023-06-14T07:39:24;11.52;;;7.18;;
18445;SDS011;9352;50.888;4.466;2023-06-14T07:41:51;14.35;;;7.15;;
18445;SDS011;9352;50.888;4.466;2023-06-14T07:44:19;13.35;;;7.30;;
18445;SDS011;9352;50.888;4.466;2023-06-14T07:46:46;14.68;;;7.35;;
18445;SDS011;9352;50.888;4.466;2023-06-14T07:49:14;12.65;;;6.95;;
18445;SDS011;9352;50.888;4.466;2023-06-14T07:51:41;12.23;;;6.57;;
18445;SDS011;9352;50.888;4.466;2023-06-14T07:54:09;27.42;;;7.13;;
18445;SDS011;9352;50.888;4.466;2023-06-14T07:56:36;10.00;;;6.25;;
18445;SDS011;9352;50.888;4.466;2023-06-14T07:59:03;14.68;;;7.00;;
18445;SDS011;9352;50.888;4.466;2023-06-14T08:01:32;11.05;;;6.25;;
18445;SDS011;9352;50.888;4.466;2023-06-14T08:03:59;12.98;;;6.53;;
18445;SDS011;9352;50.888;4.466;2023-06-14T08:06:26;11.98;;;6.47;;
18445;SDS011;9352;50.888;4.466;2023-06-14T08:08:53;15.68;;;6.60;;
18445;SDS011;9352;50.888;4.466;2023-06-14T08:11:20;11.10;;;6.20;;
18445;SDS011;9352;50.888;4.466;2023-06-14T08:13:49;11.40;;;6.50;;
18445;SDS011;9352;50.888;4.466;2023-06-14T08:16:16;7.82;;;6.25;;
18445;SDS011;9352;50.888;4.466;2023-06-14T08:18:44;8.88;;;6.15;;
18445;SDS011;9352;50.888;4.466;2023-06-14T08:21:11;17.55;;;6.60;;
18445;SDS011;9352;50.888;4.466;2023-06-14T08:23:39;25.50;;;6.15;;
18445;SDS011;9352;50.888;4.466;2023-06-14T08:26:07;16.33;;;6.00;;
18445;SDS011;9352;50.888;4.466;2023-06-14T08:28:34;10.77;;;5.55;;
18445;SDS011;9352;50.888;4.466;2023-06-14T08:31:01;9.90;;;6.10;;
18445;SDS011;9352;50.888;4.466;2023-06-14T08:33:28;13.27;;;6.18;;
18445;SDS011;9352;50.888;4.466;2023-06-14T08:35:59;13.23;;;6.38;;
18445;SDS011;9352;50.888;4.466;2023-06-14T08:38:26;10.02;;;6.00;;
18445;SDS011;9352;50.888;4.466;2023-06-14T08:40:53;8.32;;;5.85;;
18445;SDS011;9352;50.888;4.466;2023-06-14T08:43:24;16.10;;;6.35;;
18445;SDS011;9352;50.888;4.466;2023-06-14T08:45:52;9.60;;;5.90;;
18445;SDS011;9352;50.888;4.466;2023-06-14T08:48:24;12.77;;;6.40;;
18445;SDS011;9352;50.888;4.466;2023-06-14T08:50:53;9.40;;;6.05;;
18445;SDS011;9352;50.888;4.466;2023-06-14T08:53:28;9.30;;;6.32;;
18445;SDS011;9352;50.888;4.466;2023-06-14T08:55:57;14.38;;;6.15;;
18445;SDS011;9352;50.888;4.466;2023-06-14T08:58:26;13.43;;;6.55;;
18445;SDS011;9352;50.888;4.466;2023-06-14T09:00:54;20.23;;;6.00;;
18445;SDS011;9352;50.888;4.466;2023-06-14T09:03:22;12.15;;;6.28;;
18445;SDS011;9352;50.888;4.466;2023-06-14T09:05:55;33.28;;;7.25;;
18445;SDS011;9352;50.888;4.466;2023-06-14T09:08:24;15.80;;;6.47;;
18445;SDS011;9352;50.888;4.466;2023-06-14T09:10:52;9.18;;;6.22;;
18445;SDS011;9352;50.888;4.466;2023-06-14T09:13:20;6.32;;;5.68;;
18445;SDS011;9352;50.888;4.466;2023-06-14T09:15:47;10.40;;;6.25;;
18445;SDS011;9352;50.888;4.466;2023-06-14T09:18:13;12.48;;;6.65;;
18445;SDS011;9352;50.888;4.466;2023-06-14T09:20:40;16.63;;;6.20;;
18445;SDS011;9352;50.888;4.466;2023-06-14T09:23:07;24.02;;;6.30;;
18445;SDS011;9352;50.888;4.466;2023-06-14T09:25:41;7.22;;;5.88;;
18445;SDS011;9352;50.888;4.466;2023-06-14T09:28:11;16.63;;;5.70;;
18445;SDS011;9352;50.888;4.466;2023-06-14T09:30:38;12.95;;;5.63;;
18445;SDS011;9352;50.888;4.466;2023-06-14T09:33:05;24.70;;;6.25;;
18445;SDS011;9352;50.888;4.466;2023-06-14T09:35:32;10.15;;;5.50;;
18445;SDS011;9352;50.888;4.466;2023-06-14T09:37:59;16.15;;;6.20;;
18445;SDS011;9352;50.888;4.466;2023-06-14T09:40:26;27.88;;;7.65;;
18445;SDS011;9352;50.888;4.466;2023-06-14T09:42:53;10.70;;;6.03;;
18445;SDS011;9352;50.888;4.466;2023-06-14T09:45:24;9.95;;;5.97;;
18445;SDS011;9352;50.888;4.466;2023-06-14T09:47:54;12.00;;;5.65;;
18445;SDS011;9352;50.888;4.466;2023-06-14T09:50:22;10.05;;;5.90;;
18445;SDS011;9352;50.888;4.466;2023-06-14T09:52:49;8.95;;;5.95;;
18445;SDS011;9352;50.888;4.466;2023-06-14T09:55:21;10.98;;;5.78;;
18445;SDS011;9352;50.888;4.466;2023-06-14T09:57:48;7.07;;;5.07;;
18445;SDS011;9352;50.888;4.466;2023-06-14T10:00:17;9.77;;;5.65;;
18445;SDS011;9352;50.888;4.466;2023-06-14T10:02:47;8.80;;;5.90;;
18445;SDS011;9352;50.888;4.466;2023-06-14T10:05:19;11.77;;;4.93;;
18445;SDS011;9352;50.888;4.466;2023-06-14T10:07:48;13.98;;;5.38;;
18445;SDS011;9352;50.888;4.466;2023-06-14T10:10:19;10.57;;;5.25;;
18445;SDS011;9352;50.888;4.466;2023-06-14T10:12:46;15.70;;;5.00;;
18445;SDS011;9352;50.888;4.466;2023-06-14T10:15:15;11.57;;;5.30;;
18445;SDS011;9352;50.888;4.466;2023-06-14T10:17:49;8.40;;;5.35;;
18445;SDS011;9352;50.888;4.466;2023-06-14T10:20:25;8.50;;;5.00;;
18445;SDS011;9352;50.888;4.466;2023-06-14T10:22:56;10.98;;;5.03;;
18445;SDS011;9352;50.888;4.466;2023-06-14T10:25:28;11.65;;;5.53;;
18445;SDS011;9352;50.888;4.466;2023-06-14T10:28:03;11.40;;;5.43;;
18445;SDS011;9352;50.888;4.466;2023-06-14T10:30:41;9.95;;;5.38;;
18445;SDS011;9352;50.888;4.466;2023-06-14T10:33:30;13.20;;;5.60;;
18445;SDS011;9352;50.888;4.466;2023-06-14T10:36:07;10.73;;;5.38;;
18445;SDS011;9352;50.888;4.466;2023-06-14T10:38:59;5.65;;;4.70;;
18445;SDS011;9352;50.888;4.466;2023-06-14T10:41:30;13.13;;;4.75;;
18445;SDS011;9352;50.888;4.466;2023-06-14T10:47:24;12.85;;;5.25;;
18445;SDS011;9352;50.888;4.466;2023-06-14T10:49:54;5.97;;;4.53;;
18445;SDS011;9352;50.888;4.466;2023-06-14T10:52:26;10.68;;;5.07;;
18445;SDS011;9352;50.888;4.466;2023-06-14T10:57:44;7.43;;;4.93;;
18445;SDS011;9352;50.888;4.466;2023-06-14T11:00:13;8.25;;;4.60;;
18445;SDS011;9352;50.888;4.466;2023-06-14T11:05:55;6.97;;;4.25;;
18445;SDS011;9352;50.888;4.466;2023-06-14T11:08:26;5.15;;;4.00;;
18445;SDS011;9352;50.888;4.466;2023-06-14T11:11:09;6.88;;;5.15;;
18445;SDS011;9352;50.888;4.466;2023-06-14T11:13:38;8.85;;;5.03;;
18445;SDS011;9352;50.888;4.466;2023-06-14T11:16:09;5.05;;;4.65;;
18445;SDS011;9352;50.888;4.466;2023-06-14T11:18:37;11.48;;;4.60;;
18445;SDS011;9352;50.888;4.466;2023-06-14T11:21:06;10.13;;;5.03;;
18445;SDS011;9352;50.888;4.466;2023-06-14T11:23:33;10.70;;;4.57;;
18445;SDS011;9352;50.888;4.466;2023-06-14T11:26:00;11.45;;;4.70;;
18445;SDS011;9352;50.888;4.466;2023-06-14T11:28:36;5.55;;;4.32;;
18445;SDS011;9352;50.888;4.466;2023-06-14T11:31:04;15.75;;;5.15;;
18445;SDS011;9352;50.888;4.466;2023-06-14T11:33:30;13.93;;;4.60;;
18445;SDS011;9352;50.888;4.466;2023-06-14T11:35:58;11.43;;;4.43;;
18445;SDS011;9352;50.888;4.466;2023-06-14T11:38:29;13.32;;;4.40;;
18445;SDS011;9352;50.888;4.466;2023-06-14T11:40:58;7.03;;;4.22;;
18445;SDS011;9352;50.888;4.466;2023-06-14T11:43:26;7.10;;;4.80;;
18445;SDS011;9352;50.888;4.466;2023-06-14T11:45:54;9.88;;;4.65;;
18445;SDS011;9352;50.888;4.466;2023-06-14T11:48:21;11.60;;;4.10;;
18445;SDS011;9352;50.888;4.466;2023-06-14T11:50:49;9.02;;;4.72;;
18445;SDS011;9352;50.888;4.466;2023-06-14T11:53:17;8.02;;;4.30;;
18445;SDS011;9352;50.888;4.466;2023-06-14T11:55:46;9.10;;;4.60;;
18445;SDS011;9352;50.888;4.466;2023-06-14T11:58:13;6.90;;;4.20;;
18445;SDS011;9352;50.888;4.466;2023-06-14T12:00:40;7.85;;;4.40;;
18445;SDS011;9352;50.888;4.466;2023-06-14T12:03:08;12.27;;;4.57;;
18445;SDS011;9352;50.888;4.466;2023-06-14T12:05:35;7.88;;;4.32;;
18445;SDS011;9352;50.888;4.466;2023-06-14T12:08:03;8.10;;;4.30;;
18445;SDS011;9352;50.888;4.466;2023-06-14T12:10:39;10.05;;;3.90;;
18445;SDS011;9352;50.888;4.466;2023-06-14T12:13:10;7.65;;;4.07;;
18445;SDS011;9352;50.888;4.466;2023-06-14T12:15:37;11.95;;;4.53;;
18445;SDS011;9352;50.888;4.466;2023-06-14T12:18:05;10.93;;;4.53;;
18445;SDS011;9352;50.888;4.466;2023-06-14T12:20:33;7.55;;;3.95;;
18445;SDS011;9352;50.888;4.466;2023-06-14T12:23:02;5.45;;;3.70;;
18445;SDS011;9352;50.888;4.466;2023-06-14T12:25:30;7.03;;;4.13;;
18445;SDS011;9352;50.888;4.466;2023-06-14T12:27:58;18.25;;;4.43;;
18445;SDS011;9352;50.888;4.466;2023-06-14T12:30:31;26.95;;;5.03;;
18445;SDS011;9352;50.888;4.466;2023-06-14T12:32:57;10.40;;;4.25;;
18445;SDS011;9352;50.888;4.466;2023-06-14T12:35:25;6.72;;;3.83;;
18445;SDS011;9352;50.888;4.466;2023-06-14T12:37:52;4.18;;;3.88;;
18445;SDS011;9352;50.888;4.466;2023-06-14T12:40:19;12.68;;;4.35;;
18445;SDS011;9352;50.888;4.466;2023-06-14T12:42:46;6.57;;;3.90;;
18445;SDS011;9352;50.888;4.466;2023-06-14T12:45:13;9.73;;;4.00;;
18445;SDS011;9352;50.888;4.466;2023-06-14T12:47:41;7.45;;;4.07;;
18445;SDS011;9352;50.888;4.466;2023-06-14T12:50:08;6.90;;;3.97;;
18445;SDS011;9352;50.888;4.466;2023-06-14T12:52:35;6.32;;;3.20;;
18445;SDS011;9352;50.888;4.466;2023-06-14T12:55:03;7.72;;;3.47;;
18445;SDS011;9352;50.888;4.466;2023-06-14T12:57:30;8.80;;;4.10;;
18445;SDS011;9352;50.888;4.466;2023-06-14T12:59:59;9.93;;;3.88;;
18445;SDS011;9352;50.888;4.466;2023-06-14T13:02:26;10.30;;;3.70;;
18445;SDS011;9352;50.888;4.466;2023-06-14T13:04:55;5.25;;;3.67;;
18445;SDS011;9352;50.888;4.466;2023-06-14T13:07:23;3.67;;;3.38;;
18445;SDS011;9352;50.888;4.466;2023-06-14T13:09:50;3.97;;;3.40;;
18445;SDS011;9352;50.888;4.466;2023-06-14T13:12:17;9.45;;;3.65;;
18445;SDS011;9352;50.888;4.466;2023-06-14T13:14:44;7.88;;;3.83;;
18445;SDS011;9352;50.888;4.466;2023-06-14T13:17:11;8.88;;;3.55;;
18445;SDS011;9352;50.888;4.466;2023-06-14T13:19:37;8.13;;;3.42;;
18445;SDS011;9352;50.888;4.466;2023-06-14T13:22:06;7.47;;;3.70;;
18445;SDS011;9352;50.888;4.466;2023-06-14T13:24:33;5.22;;;3.75;;
18445;SDS011;9352;50.888;4.466;2023-06-14T13:27:00;6.00;;;3.30;;
18445;SDS011;9352;50.888;4.466;2023-06-14T13:29:27;5.20;;;3.28;;
18445;SDS011;9352;50.888;4.466;2023-06-14T13:31:55;4.93;;;3.00;;
18445;SDS011;9352;50.888;4.466;2023-06-14T13:34:22;3.83;;;3.47;;
18445;SDS011;9352;50.888;4.466;2023-06-14T13:36:49;5.72;;;3.25;;
18445;SDS011;9352;50.888;4.466;2023-06-14T13:39:17;4.30;;;2.97;;
18445;SDS011;9352;50.888;4.466;2023-06-14T13:41:44;5.10;;;3.10;;
18445;SDS011;9352;50.888;4.466;2023-06-14T13:44:11;2.95;;;2.80;;
18445;SDS011;9352;50.888;4.466;2023-06-14T13:46:39;2.85;;;2.75;;
18445;SDS011;9352;50.888;4.466;2023-06-14T13:49:07;7.88;;;2.70;;
18445;SDS011;9352;50.888;4.466;2023-06-14T13:51:35;6.07;;;2.90;;
18445;SDS011;9352;50.888;4.466;2023-06-14T13:54:02;4.90;;;2.88;;
18445;SDS011;9352;50.888;4.466;2023-06-14T13:56:30;88.60;;;7.65;;
18445;SDS011;9352;50.888;4.466;2023-06-14T13:58:57;5.55;;;2.58;;
18445;SDS011;9352;50.888;4.466;2023-06-14T14:01:25;4.07;;;2.47;;
18445;SDS011;9352;50.888;4.466;2023-06-14T14:03:53;6.07;;;2.40;;
18445;SDS011;9352;50.888;4.466;2023-06-14T14:06:21;6.60;;;2.70;;
18445;SDS011;9352;50.888;4.466;2023-06-14T14:08:48;7.10;;;2.90;;
18445;SDS011;9352;50.888;4.466;2023-06-14T14:11:14;2.67;;;2.40;;
18445;SDS011;9352;50.888;4.466;2023-06-14T14:13:43;4.55;;;2.55;;
18445;SDS011;9352;50.888;4.466;2023-06-14T14:16:10;2.72;;;2.15;;
18445;SDS011;9352;50.888;4.466;2023-06-14T14:18:37;5.45;;;2.28;;
18445;SDS011;9352;50.888;4.466;2023-06-14T14:21:04;2.83;;;2.03;;
18445;SDS011;9352;50.888;4.466;2023-06-14T14:23:31;5.10;;;2.30;;
18445;SDS011;9352;50.888;4.466;2023-06-14T14:25:58;12.70;;;2.70;;
18445;SDS011;9352;50.888;4.466;2023-06-14T14:28:26;9.10;;;2.20;;
18445;SDS011;9352;50.888;4.466;2023-06-14T14:30:54;2.72;;;2.35;;
18445;SDS011;9352;50.888;4.466;2023-06-14T14:33:21;9.02;;;3.10;;
18445;SDS011;9352;50.888;4.466;2023-06-14T14:35:48;6.88;;;2.10;;
18445;SDS011;9352;50.888;4.466;2023-06-14T14:38:14;5.40;;;2.35;;
18445;SDS011;9352;50.888;4.466;2023-06-14T14:40:42;4.88;;;2.50;;
18445;SDS011;9352;50.888;4.466;2023-06-14T14:43:09;3.10;;;2.33;;
18445;SDS011;9352;50.888;4.466;2023-06-14T14:45:36;5.97;;;2.30;;
18445;SDS011;9352;50.888;4.466;2023-06-14T14:48:04;6.50;;;2.58;;
18445;SDS011;9352;50.888;4.466;2023-06-14T14:50:32;3.35;;;3.15;;
18445;SDS011;9352;50.888;4.466;2023-06-14T14:52:59;32.75;;;4.43;;
18445;SDS011;9352;50.888;4.466;2023-06-14T14:55:26;5.10;;;2.47;;
18445;SDS011;9352;50.888;4.466;2023-06-14T14:57:53;4.60;;;2.50;;
18445;SDS011;9352;50.888;4.466;2023-06-14T15:00:20;9.02;;;2.47;;
18445;SDS011;9352;50.888;4.466;2023-06-14T15:02:47;6.88;;;2.80;;
18445;SDS011;9352;50.888;4.466;2023-06-14T15:05:16;4.50;;;2.20;;
18445;SDS011;9352;50.888;4.466;2023-06-14T15:07:43;4.18;;;2.45;;